sensor_id;sensor_type;location;lat;lon;timestamp;P1;durP1;ratioP1;P2;durP2;ratioP2
14092;SDS011;7123;49.468;10.992;2024-01-15T00:00:13;40.70;;;14.30;;
14092;SDS011;7123;49.468;10.992;2024-01-15T00:02:40;39.80;;;15.13;;
14092;SDS011;7123;49.468;10.992;2024-01-15T00:05:07;36.53;;;13.73;;
14092;SDS011;7123;49.468;10.992;2024-01-15T00:07:34;49.07;;;18.30;;
14092;SDS011;7123;49.468;10.992;2024-01-15T00:10:02;38.60;;;14.90;;
14092;SDS011;7123;49.468;10.992;2024-01-15T00:12:29;23.37;;;10.17;;
14092;SDS011;7123;49.468;10.992;2024-01-15T00:14:56;38.67;;;15.90;;
14092;SDS011;7123;49.468;10.992;2024-01-15T00:17:22;41.77;;;16.63;;
14092;SDS011;7123;49.468;10.992;2024-01-15T00:19:49;39.83;;;15.80;;
14092;SDS011;7123;49.468;10.992;2024-01-15T00:22:16;49.57;;;16.17;;
14092;SDS011;7123;49.468;10.992;2024-01-15T00:24:43;42.33;;;16.43;;
14092;SDS011;7123;49.468;10.992;2024-01-15T00:27:10;43.43;;;17.53;;
14092;SDS011;7123;49.468;10.992;2024-01-15T00:29:37;47.47;;;16.90;;
14092;SDS011;7123;49.468;10.992;2024-01-15T00:32:04;41.67;;;17.07;;
14092;SDS011;7123;49.468;10.992;2024-01-15T00:34:31;37.83;;;15.57;;
14092;SDS011;7123;49.468;10.992;2024-01-15T00:36:58;48.07;;;18.17;;
14092;SDS011;7123;49.468;10.992;2024-01-15T00:39:25;40.67;;;16.07;;
14092;SDS011;7123;49.468;10.992;2024-01-15T00:41:52;43.73;;;17.13;;
14092;SDS011;7123;49.468;10.992;2024-01-15T00:44:19;41.03;;;15.57;;
14092;SDS011;7123;49.468;10.992;2024-01-15T00:46:46;30.00;;;13.20;;
14092;SDS011;7123;49.468;10.992;2024-01-15T00:49:13;45.30;;;17.23;;
14092;SDS011;7123;49.468;10.992;2024-01-15T00:51:40;40.23;;;15.47;;
14092;SDS011;7123;49.468;10.992;2024-01-15T00:54:07;38.13;;;15.87;;
14092;SDS011;7123;49.468;10.992;2024-01-15T00:56:34;42.30;;;16.90;;
14092;SDS011;7123;49.468;10.992;2024-01-15T00:59:01;46.20;;;16.97;;
14092;SDS011;7123;49.468;10.992;2024-01-15T01:01:28;45.13;;;16.80;;
14092;SDS011;7123;49.468;10.992;2024-01-15T01:03:56;39.80;;;16.87;;
14092;SDS011;7123;49.468;10.992;2024-01-15T01:06:23;45.00;;;16.80;;
14092;SDS011;7123;49.468;10.992;2024-01-15T01:08:50;45.90;;;17.47;;
14092;SDS011;7123;49.468;10.992;2024-01-15T01:11:16;43.40;;;17.40;;
14092;SDS011;7123;49.468;10.992;2024-01-15T01:13:43;44.03;;;17.13;;
14092;SDS011;7123;49.468;10.992;2024-01-15T01:16:10;37.27;;;16.43;;
14092;SDS011;7123;49.468;10.992;2024-01-15T01:18:36;44.00;;;17.17;;
14092;SDS011;7123;49.468;10.992;2024-01-15T01:21:03;39.83;;;16.73;;
14092;SDS011;7123;49.468;10.992;2024-01-15T01:23:30;42.73;;;17.40;;
14092;SDS011;7123;49.468;10.992;2024-01-15T01:25:57;42.80;;;16.37;;
14092;SDS011;7123;49.468;10.992;2024-01-15T01:28:24;41.87;;;16.87;;
14092;SDS011;7123;49.468;10.992;2024-01-15T01:30:50;43.57;;;16.27;;
14092;SDS011;7123;49.468;10.992;2024-01-15T01:33:17;43.20;;;17.33;;
14092;SDS011;7123;49.468;10.992;2024-01-15T01:35:44;42.17;;;16.40;;
14092;SDS011;7123;49.468;10.992;2024-01-15T01:38:12;51.47;;;17.77;;
14092;SDS011;7123;49.468;10.992;2024-01-15T01:40:39;46.37;;;16.20;;
14092;SDS011;7123;49.468;10.992;2024-01-15T01:43:06;42.87;;;17.00;;
14092;SDS011;7123;49.468;10.992;2024-01-15T01:45:35;43.87;;;17.87;;
14092;SDS011;7123;49.468;10.992;2024-01-15T01:48:01;45.20;;;17.17;;
14092;SDS011;7123;49.468;10.992;2024-01-15T01:50:29;35.77;;;12.57;;
14092;SDS011;7123;49.468;10.992;2024-01-15T01:52:58;39.53;;;16.37;;
14092;SDS011;7123;49.468;10.992;2024-01-15T01:55:26;47.77;;;16.63;;
14092;SDS011;7123;49.468;10.992;2024-01-15T01:57:55;41.77;;;15.53;;
14092;SDS011;7123;49.468;10.992;2024-01-15T02:00:23;42.50;;;16.67;;
14092;SDS011;7123;49.468;10.992;2024-01-15T02:02:50;38.07;;;15.07;;
14092;SDS011;7123;49.468;10.992;2024-01-15T02:05:18;41.20;;;15.67;;
14092;SDS011;7123;49.468;10.992;2024-01-15T02:07:46;36.87;;;14.90;;
14092;SDS011;7123;49.468;10.992;2024-01-15T02:10:13;45.83;;;16.20;;
14092;SDS011;7123;49.468;10.992;2024-01-15T02:12:40;39.23;;;14.50;;
14092;SDS011;7123;49.468;10.992;2024-01-15T02:15:09;36.90;;;14.97;;
14092;SDS011;7123;49.468;10.992;2024-01-15T02:17:55;33.83;;;14.10;;
14092;SDS011;7123;49.468;10.992;2024-01-15T02:20:24;38.53;;;14.50;;
14092;SDS011;7123;49.468;10.992;2024-01-15T02:22:52;34.80;;;14.13;;
14092;SDS011;7123;49.468;10.992;2024-01-15T02:25:19;35.23;;;13.33;;
14092;SDS011;7123;49.468;10.992;2024-01-15T02:27:46;35.23;;;13.67;;
14092;SDS011;7123;49.468;10.992;2024-01-15T02:30:14;25.93;;;11.33;;
14092;SDS011;7123;49.468;10.992;2024-01-15T02:32:42;36.27;;;13.93;;
14092;SDS011;7123;49.468;10.992;2024-01-15T02:35:09;25.87;;;9.93;;
14092;SDS011;7123;49.468;10.992;2024-01-15T02:37:36;36.47;;;13.83;;
14092;SDS011;7123;49.468;10.992;2024-01-15T02:40:03;36.97;;;13.97;;
14092;SDS011;7123;49.468;10.992;2024-01-15T02:42:30;33.90;;;14.33;;
14092;SDS011;7123;49.468;10.992;2024-01-15T02:44:56;29.07;;;11.13;;
14092;SDS011;7123;49.468;10.992;2024-01-15T02:47:23;28.23;;;10.60;;
14092;SDS011;7123;49.468;10.992;2024-01-15T02:49:50;28.93;;;11.23;;
14092;SDS011;7123;49.468;10.992;2024-01-15T02:52:17;30.47;;;13.63;;
14092;SDS011;7123;49.468;10.992;2024-01-15T02:54:44;29.17;;;11.17;;
14092;SDS011;7123;49.468;10.992;2024-01-15T02:57:11;30.87;;;12.50;;
14092;SDS011;7123;49.468;10.992;2024-01-15T02:59:37;31.83;;;12.40;;
14092;SDS011;7123;49.468;10.992;2024-01-15T03:02:04;26.47;;;12.07;;
14092;SDS011;7123;49.468;10.992;2024-01-15T03:04:31;31.77;;;13.67;;
14092;SDS011;7123;49.468;10.992;2024-01-15T03:06:58;31.60;;;13.00;;
14092;SDS011;7123;49.468;10.992;2024-01-15T03:09:25;20.27;;;9.70;;
14092;SDS011;7123;49.468;10.992;2024-01-15T03:11:52;29.67;;;12.77;;
14092;SDS011;7123;49.468;10.992;2024-01-15T03:14:18;32.03;;;11.20;;
14092;SDS011;7123;49.468;10.992;2024-01-15T03:16:46;17.73;;;8.17;;
14092;SDS011;7123;49.468;10.992;2024-01-15T03:19:13;27.00;;;10.23;;
14092;SDS011;7123;49.468;10.992;2024-01-15T03:21:40;29.27;;;10.53;;
14092;SDS011;7123;49.468;10.992;2024-01-15T03:24:06;26.27;;;11.63;;
14092;SDS011;7123;49.468;10.992;2024-01-15T03:26:33;26.00;;;11.23;;
14092;SDS011;7123;49.468;10.992;2024-01-15T03:29:00;24.83;;;10.53;;
14092;SDS011;7123;49.468;10.992;2024-01-15T03:31:27;27.07;;;10.20;;
14092;SDS011;7123;49.468;10.992;2024-01-15T03:33:53;27.97;;;10.50;;
14092;SDS011;7123;49.468;10.992;2024-01-15T03:36:20;27.57;;;11.03;;
14092;SDS011;7123;49.468;10.992;2024-01-15T03:38:47;30.57;;;11.30;;
14092;SDS011;7123;49.468;10.992;2024-01-15T03:41:14;26.17;;;10.93;;
14092;SDS011;7123;49.468;10.992;2024-01-15T03:43:41;25.07;;;11.33;;
14092;SDS011;7123;49.468;10.992;2024-01-15T03:46:08;12.73;;;6.77;;
14092;SDS011;7123;49.468;10.992;2024-01-15T03:48:34;22.50;;;10.17;;
14092;SDS011;7123;49.468;10.992;2024-01-15T03:51:02;28.40;;;12.80;;
14092;SDS011;7123;49.468;10.992;2024-01-15T03:53:28;15.80;;;7.37;;
14092;SDS011;7123;49.468;10.992;2024-01-15T03:55:55;21.90;;;10.17;;
14092;SDS011;7123;49.468;10.992;2024-01-15T03:58:22;29.30;;;11.60;;
14092;SDS011;7123;49.468;10.992;2024-01-15T04:00:49;26.40;;;10.80;;
14092;SDS011;7123;49.468;10.992;2024-01-15T04:03:16;24.47;;;10.23;;
14092;SDS011;7123;49.468;10.992;2024-01-15T04:05:43;26.13;;;10.83;;
14092;SDS011;7123;49.468;10.992;2024-01-15T04:08:10;26.17;;;11.97;;
14092;SDS011;7123;49.468;10.992;2024-01-15T04:10:36;18.70;;;9.20;;
14092;SDS011;7123;49.468;10.992;2024-01-15T04:13:03;24.50;;;11.23;;
14092;SDS011;7123;49.468;10.992;2024-01-15T04:15:30;18.83;;;8.97;;
14092;SDS011;7123;49.468;10.992;2024-01-15T04:17:57;21.63;;;8.80;;
14092;SDS011;7123;49.468;10.992;2024-01-15T04:20:23;16.93;;;7.83;;
14092;SDS011;7123;49.468;10.992;2024-01-15T04:22:51;22.37;;;9.47;;
14092;SDS011;7123;49.468;10.992;2024-01-15T04:25:18;22.17;;;10.50;;
14092;SDS011;7123;49.468;10.992;2024-01-15T04:27:45;19.90;;;9.70;;
14092;SDS011;7123;49.468;10.992;2024-01-15T04:30:12;23.03;;;10.17;;
14092;SDS011;7123;49.468;10.992;2024-01-15T04:32:39;26.57;;;11.33;;
14092;SDS011;7123;49.468;10.992;2024-01-15T04:35:06;23.93;;;10.07;;
14092;SDS011;7123;49.468;10.992;2024-01-15T04:37:33;24.53;;;10.60;;
14092;SDS011;7123;49.468;10.992;2024-01-15T04:40:02;22.77;;;10.80;;
14092;SDS011;7123;49.468;10.992;2024-01-15T04:42:30;26.70;;;10.87;;
14092;SDS011;7123;49.468;10.992;2024-01-15T04:44:57;30.87;;;12.23;;
14092;SDS011;7123;49.468;10.992;2024-01-15T04:47:23;25.67;;;11.30;;
14092;SDS011;7123;49.468;10.992;2024-01-15T04:49:50;25.20;;;11.33;;
14092;SDS011;7123;49.468;10.992;2024-01-15T04:52:17;24.63;;;10.83;;
14092;SDS011;7123;49.468;10.992;2024-01-15T04:54:44;26.13;;;11.30;;
14092;SDS011;7123;49.468;10.992;2024-01-15T04:57:11;28.30;;;12.87;;
14092;SDS011;7123;49.468;10.992;2024-01-15T04:59:38;24.53;;;10.13;;
14092;SDS011;7123;49.468;10.992;2024-01-15T05:02:05;22.07;;;10.30;;
14092;SDS011;7123;49.468;10.992;2024-01-15T05:04:32;30.70;;;12.23;;
14092;SDS011;7123;49.468;10.992;2024-01-15T05:06:59;30.00;;;11.90;;
14092;SDS011;7123;49.468;10.992;2024-01-15T05:09:26;25.87;;;11.33;;
14092;SDS011;7123;49.468;10.992;2024-01-15T05:11:56;22.93;;;9.37;;
14092;SDS011;7123;49.468;10.992;2024-01-15T05:14:23;25.57;;;9.93;;
14092;SDS011;7123;49.468;10.992;2024-01-15T05:16:50;28.93;;;11.40;;
14092;SDS011;7123;49.468;10.992;2024-01-15T05:19:17;22.00;;;10.43;;
14092;SDS011;7123;49.468;10.992;2024-01-15T05:21:44;27.17;;;11.63;;
14092;SDS011;7123;49.468;10.992;2024-01-15T05:24:11;24.70;;;11.47;;
14092;SDS011;7123;49.468;10.992;2024-01-15T05:26:38;24.77;;;10.53;;
14092;SDS011;7123;49.468;10.992;2024-01-15T05:29:05;22.90;;;10.40;;
14092;SDS011;7123;49.468;10.992;2024-01-15T05:31:32;25.27;;;11.30;;
14092;SDS011;7123;49.468;10.992;2024-01-15T05:33:59;23.67;;;10.73;;
14092;SDS011;7123;49.468;10.992;2024-01-15T05:36:26;20.00;;;9.87;;
14092;SDS011;7123;49.468;10.992;2024-01-15T05:38:53;25.13;;;10.83;;
14092;SDS011;7123;49.468;10.992;2024-01-15T05:41:19;22.90;;;10.13;;
14092;SDS011;7123;49.468;10.992;2024-01-15T05:43:46;25.83;;;11.13;;
14092;SDS011;7123;49.468;10.992;2024-01-15T05:46:13;20.73;;;9.73;;
14092;SDS011;7123;49.468;10.992;2024-01-15T05:48:40;23.77;;;9.90;;
14092;SDS011;7123;49.468;10.992;2024-01-15T05:51:07;30.73;;;10.23;;
14092;SDS011;7123;49.468;10.992;2024-01-15T05:53:34;25.43;;;9.93;;
14092;SDS011;7123;49.468;10.992;2024-01-15T05:56:00;16.70;;;7.37;;
14092;SDS011;7123;49.468;10.992;2024-01-15T05:58:27;16.33;;;6.77;;
14092;SDS011;7123;49.468;10.992;2024-01-15T06:00:54;24.13;;;10.90;;
14092;SDS011;7123;49.468;10.992;2024-01-15T06:03:21;20.60;;;9.90;;
14092;SDS011;7123;49.468;10.992;2024-01-15T06:05:47;17.53;;;8.07;;
14092;SDS011;7123;49.468;10.992;2024-01-15T06:08:14;19.33;;;7.80;;
14092;SDS011;7123;49.468;10.992;2024-01-15T06:10:41;14.90;;;7.80;;
14092;SDS011;7123;49.468;10.992;2024-01-15T06:13:08;21.57;;;9.97;;
14092;SDS011;7123;49.468;10.992;2024-01-15T06:15:34;15.87;;;7.77;;
14092;SDS011;7123;49.468;10.992;2024-01-15T06:18:01;21.80;;;10.00;;
14092;SDS011;7123;49.468;10.992;2024-01-15T06:20:28;21.47;;;10.00;;
14092;SDS011;7123;49.468;10.992;2024-01-15T06:22:55;18.40;;;8.37;;
14092;SDS011;7123;49.468;10.992;2024-01-15T06:25:22;22.23;;;9.67;;
14092;SDS011;7123;49.468;10.992;2024-01-15T06:27:48;20.33;;;9.53;;
14092;SDS011;7123;49.468;10.992;2024-01-15T06:30:15;21.37;;;9.57;;
14092;SDS011;7123;49.468;10.992;2024-01-15T06:32:42;20.40;;;9.37;;
14092;SDS011;7123;49.468;10.992;2024-01-15T06:35:09;26.53;;;9.80;;
14092;SDS011;7123;49.468;10.992;2024-01-15T06:37:38;20.27;;;7.93;;
14092;SDS011;7123;49.468;10.992;2024-01-15T06:40:05;18.47;;;10.13;;
14092;SDS011;7123;49.468;10.992;2024-01-15T06:42:32;20.90;;;10.87;;
14092;SDS011;7123;49.468;10.992;2024-01-15T06:44:59;23.37;;;11.03;;
14092;SDS011;7123;49.468;10.992;2024-01-15T06:47:26;27.90;;;11.93;;
14092;SDS011;7123;49.468;10.992;2024-01-15T06:49:52;25.70;;;10.70;;
14092;SDS011;7123;49.468;10.992;2024-01-15T06:52:19;22.90;;;9.97;;
14092;SDS011;7123;49.468;10.992;2024-01-15T06:54:46;22.73;;;10.20;;
14092;SDS011;7123;49.468;10.992;2024-01-15T06:57:14;25.03;;;10.47;;
14092;SDS011;7123;49.468;10.992;2024-01-15T06:59:40;20.30;;;10.57;;
14092;SDS011;7123;49.468;10.992;2024-01-15T07:02:07;22.87;;;6.30;;
14092;SDS011;7123;49.468;10.992;2024-01-15T07:04:34;24.10;;;9.67;;
14092;SDS011;7123;49.468;10.992;2024-01-15T07:07:01;21.50;;;10.03;;
14092;SDS011;7123;49.468;10.992;2024-01-15T07:09:27;15.60;;;8.00;;
14092;SDS011;7123;49.468;10.992;2024-01-15T07:11:54;20.17;;;9.47;;
14092;SDS011;7123;49.468;10.992;2024-01-15T07:14:23;22.03;;;9.50;;
14092;SDS011;7123;49.468;10.992;2024-01-15T07:16:50;18.47;;;9.33;;
14092;SDS011;7123;49.468;10.992;2024-01-15T07:19:16;22.77;;;9.70;;
14092;SDS011;7123;49.468;10.992;2024-01-15T07:21:43;22.43;;;10.40;;
14092;SDS011;7123;49.468;10.992;2024-01-15T07:24:10;20.90;;;10.67;;
14092;SDS011;7123;49.468;10.992;2024-01-15T07:26:37;25.53;;;11.00;;
14092;SDS011;7123;49.468;10.992;2024-01-15T07:29:04;23.00;;;9.93;;
14092;SDS011;7123;49.468;10.992;2024-01-15T07:31:30;22.77;;;10.73;;
14092;SDS011;7123;49.468;10.992;2024-01-15T07:33:59;21.10;;;10.37;;
14092;SDS011;7123;49.468;10.992;2024-01-15T07:36:26;20.57;;;9.73;;
14092;SDS011;7123;49.468;10.992;2024-01-15T07:38:53;20.50;;;10.33;;
14092;SDS011;7123;49.468;10.992;2024-01-15T07:41:20;23.83;;;10.73;;
14092;SDS011;7123;49.468;10.992;2024-01-15T07:43:46;27.93;;;11.00;;
14092;SDS011;7123;49.468;10.992;2024-01-15T07:46:13;23.57;;;11.43;;
14092;SDS011;7123;49.468;10.992;2024-01-15T07:48:40;21.93;;;11.03;;
14092;SDS011;7123;49.468;10.992;2024-01-15T07:51:07;27.43;;;12.13;;
14092;SDS011;7123;49.468;10.992;2024-01-15T07:53:33;22.53;;;10.40;;
14092;SDS011;7123;49.468;10.992;2024-01-15T07:56:00;21.03;;;9.87;;
14092;SDS011;7123;49.468;10.992;2024-01-15T07:58:27;19.30;;;8.83;;
14092;SDS011;7123;49.468;10.992;2024-01-15T08:00:54;21.63;;;10.20;;
14092;SDS011;7123;49.468;10.992;2024-01-15T08:03:20;23.33;;;11.57;;
14092;SDS011;7123;49.468;10.992;2024-01-15T08:05:47;24.17;;;10.33;;
14092;SDS011;7123;49.468;10.992;2024-01-15T08:08:18;22.53;;;10.83;;
14092;SDS011;7123;49.468;10.992;2024-01-15T08:10:47;22.47;;;9.53;;
14092;SDS011;7123;49.468;10.992;2024-01-15T08:13:14;21.90;;;10.77;;
14092;SDS011;7123;49.468;10.992;2024-01-15T08:15:41;20.93;;;10.40;;
14092;SDS011;7123;49.468;10.992;2024-01-15T08:18:08;20.87;;;9.70;;
14092;SDS011;7123;49.468;10.992;2024-01-15T08:20:35;21.70;;;9.87;;
14092;SDS011;7123;49.468;10.992;2024-01-15T08:23:02;21.30;;;9.80;;
14092;SDS011;7123;49.468;10.992;2024-01-15T08:25:29;21.20;;;9.40;;
14092;SDS011;7123;49.468;10.992;2024-01-15T08:27:56;18.63;;;8.87;;
14092;SDS011;7123;49.468;10.992;2024-01-15T08:30:26;19.20;;;9.33;;
14092;SDS011;7123;49.468;10.992;2024-01-15T08:32:54;17.97;;;9.13;;
14092;SDS011;7123;49.468;10.992;2024-01-15T08:35:25;22.20;;;9.70;;
14092;SDS011;7123;49.468;10.992;2024-01-15T08:37:52;21.17;;;10.23;;
14092;SDS011;7123;49.468;10.992;2024-01-15T08:40:19;19.33;;;8.83;;
14092;SDS011;7123;49.468;10.992;2024-01-15T08:42:46;19.43;;;9.20;;
14092;SDS011;7123;49.468;10.992;2024-01-15T08:45:13;18.17;;;9.47;;
14092;SDS011;7123;49.468;10.992;2024-01-15T08:47:40;18.13;;;9.23;;
14092;SDS011;7123;49.468;10.992;2024-01-15T08:50:07;16.67;;;9.20;;
14092;SDS011;7123;49.468;10.992;2024-01-15T08:52:36;18.63;;;9.70;;
14092;SDS011;7123;49.468;10.992;2024-01-15T08:55:03;18.83;;;9.00;;
14092;SDS011;7123;49.468;10.992;2024-01-15T08:57:30;17.83;;;9.23;;
14092;SDS011;7123;49.468;10.992;2024-01-15T08:59:57;19.33;;;9.37;;
14092;SDS011;7123;49.468;10.992;2024-01-15T09:02:25;21.30;;;9.20;;
14092;SDS011;7123;49.468;10.992;2024-01-15T09:04:51;19.10;;;8.47;;
14092;SDS011;7123;49.468;10.992;2024-01-15T09:07:18;18.63;;;8.70;;
14092;SDS011;7123;49.468;10.992;2024-01-15T09:09:45;12.70;;;7.90;;
14092;SDS011;7123;49.468;10.992;2024-01-15T09:12:12;20.90;;;8.87;;
14092;SDS011;7123;49.468;10.992;2024-01-15T09:14:41;16.40;;;8.90;;
14092;SDS011;7123;49.468;10.992;2024-01-15T09:17:08;17.07;;;8.97;;
14092;SDS011;7123;49.468;10.992;2024-01-15T09:19:35;17.93;;;8.50;;
14092;SDS011;7123;49.468;10.992;2024-01-15T09:22:02;15.97;;;9.10;;
14092;SDS011;7123;49.468;10.992;2024-01-15T09:24:29;21.13;;;9.07;;
14092;SDS011;7123;49.468;10.992;2024-01-15T09:26:55;17.97;;;9.53;;
14092;SDS011;7123;49.468;10.992;2024-01-15T09:29:22;13.77;;;7.93;;
14092;SDS011;7123;49.468;10.992;2024-01-15T09:31:50;18.33;;;9.00;;
14092;SDS011;7123;49.468;10.992;2024-01-15T09:34:17;14.73;;;7.40;;
14092;SDS011;7123;49.468;10.992;2024-01-15T09:36:44;18.37;;;8.83;;
14092;SDS011;7123;49.468;10.992;2024-01-15T09:39:11;17.83;;;9.60;;
14092;SDS011;7123;49.468;10.992;2024-01-15T09:41:38;12.13;;;7.50;;
14092;SDS011;7123;49.468;10.992;2024-01-15T09:44:06;17.60;;;8.43;;
14092;SDS011;7123;49.468;10.992;2024-01-15T09:46:36;15.67;;;8.90;;
14092;SDS011;7123;49.468;10.992;2024-01-15T09:49:04;13.27;;;7.93;;
14092;SDS011;7123;49.468;10.992;2024-01-15T09:51:31;11.43;;;7.20;;
14092;SDS011;7123;49.468;10.992;2024-01-15T09:53:59;16.63;;;8.50;;
14092;SDS011;7123;49.468;10.992;2024-01-15T09:56:25;17.17;;;9.13;;
14092;SDS011;7123;49.468;10.992;2024-01-15T09:58:53;13.87;;;7.83;;
14092;SDS011;7123;49.468;10.992;2024-01-15T10:01:20;17.43;;;8.67;;
14092;SDS011;7123;49.468;10.992;2024-01-15T10:03:47;15.30;;;8.10;;
14092;SDS011;7123;49.468;10.992;2024-01-15T10:06:15;14.63;;;8.27;;
14092;SDS011;7123;49.468;10.992;2024-01-15T10:08:49;22.13;;;9.17;;
14092;SDS011;7123;49.468;10.992;2024-01-15T10:11:17;14.90;;;7.87;;
14092;SDS011;7123;49.468;10.992;2024-01-15T10:13:44;14.70;;;7.77;;
14092;SDS011;7123;49.468;10.992;2024-01-15T10:16:12;13.37;;;7.37;;
14092;SDS011;7123;49.468;10.992;2024-01-15T10:18:39;15.70;;;6.90;;
14092;SDS011;7123;49.468;10.992;2024-01-15T10:21:07;13.90;;;7.20;;
14092;SDS011;7123;49.468;10.992;2024-01-15T10:23:34;13.43;;;8.20;;
14092;SDS011;7123;49.468;10.992;2024-01-15T10:26:02;11.20;;;7.20;;
14092;SDS011;7123;49.468;10.992;2024-01-15T10:28:30;16.73;;;8.60;;
14092;SDS011;7123;49.468;10.992;2024-01-15T10:30:58;15.63;;;7.87;;
14092;SDS011;7123;49.468;10.992;2024-01-15T10:33:26;16.40;;;8.73;;
14092;SDS011;7123;49.468;10.992;2024-01-15T10:35:54;12.67;;;6.90;;
14092;SDS011;7123;49.468;10.992;2024-01-15T10:38:22;16.73;;;8.67;;
14092;SDS011;7123;49.468;10.992;2024-01-15T10:40:53;14.80;;;8.20;;
14092;SDS011;7123;49.468;10.992;2024-01-15T10:43:21;17.03;;;7.80;;
14092;SDS011;7123;49.468;10.992;2024-01-15T10:45:51;16.87;;;8.70;;
14092;SDS011;7123;49.468;10.992;2024-01-15T10:48:18;11.63;;;5.90;;
14092;SDS011;7123;49.468;10.992;2024-01-15T10:50:46;18.80;;;9.50;;
14092;SDS011;7123;49.468;10.992;2024-01-15T10:53:13;12.73;;;7.87;;
14092;SDS011;7123;49.468;10.992;2024-01-15T10:55:41;15.50;;;8.50;;
14092;SDS011;7123;49.468;10.992;2024-01-15T10:58:09;15.07;;;8.70;;
14092;SDS011;7123;49.468;10.992;2024-01-15T11:00:36;11.90;;;6.93;;
14092;SDS011;7123;49.468;10.992;2024-01-15T11:03:04;13.97;;;7.40;;
14092;SDS011;7123;49.468;10.992;2024-01-15T11:05:41;14.10;;;8.03;;
14092;SDS011;7123;49.468;10.992;2024-01-15T11:08:09;14.30;;;7.77;;
14092;SDS011;7123;49.468;10.992;2024-01-15T11:10:40;14.10;;;7.97;;
14092;SDS011;7123;49.468;10.992;2024-01-15T11:13:08;15.20;;;7.93;;
14092;SDS011;7123;49.468;10.992;2024-01-15T11:15:56;15.07;;;7.33;;
14092;SDS011;7123;49.468;10.992;2024-01-15T11:18:28;14.33;;;7.43;;
14092;SDS011;7123;49.468;10.992;2024-01-15T11:23:48;15.50;;;8.33;;
14092;SDS011;7123;49.468;10.992;2024-01-15T11:26:26;14.07;;;8.20;;
14092;SDS011;7123;49.468;10.992;2024-01-15T11:28:57;13.33;;;7.40;;
14092;SDS011;7123;49.468;10.992;2024-01-15T11:34:06;14.77;;;8.10;;
14092;SDS011;7123;49.468;10.992;2024-01-15T11:39:39;15.50;;;8.03;;
14092;SDS011;7123;49.468;10.992;2024-01-15T11:42:06;16.60;;;8.00;;
14092;SDS011;7123;49.468;10.992;2024-01-15T11:44:33;13.17;;;7.60;;
14092;SDS011;7123;49.468;10.992;2024-01-15T11:47:00;14.50;;;8.30;;
14092;SDS011;7123;49.468;10.992;2024-01-15T11:52:34;16.73;;;8.10;;
14092;SDS011;7123;49.468;10.992;2024-01-15T11:55:16;13.43;;;7.47;;
14092;SDS011;7123;49.468;10.992;2024-01-15T11:57:53;12.33;;;7.40;;
14092;SDS011;7123;49.468;10.992;2024-01-15T12:00:23;17.63;;;7.87;;
14092;SDS011;7123;49.468;10.992;2024-01-15T12:02:50;16.13;;;8.63;;
14092;SDS011;7123;49.468;10.992;2024-01-15T12:05:18;11.83;;;7.13;;
14092;SDS011;7123;49.468;10.992;2024-01-15T12:07:46;13.00;;;7.63;;
14092;SDS011;7123;49.468;10.992;2024-01-15T12:10:18;13.37;;;8.00;;
14092;SDS011;7123;49.468;10.992;2024-01-15T12:15:33;16.60;;;8.07;;
14092;SDS011;7123;49.468;10.992;2024-01-15T12:18:00;14.87;;;8.60;;
14092;SDS011;7123;49.468;10.992;2024-01-15T12:20:29;15.00;;;9.10;;
14092;SDS011;7123;49.468;10.992;2024-01-15T12:22:57;17.13;;;8.50;;
14092;SDS011;7123;49.468;10.992;2024-01-15T12:25:29;15.43;;;8.40;;
14092;SDS011;7123;49.468;10.992;2024-01-15T12:27:57;12.27;;;7.00;;
14092;SDS011;7123;49.468;10.992;2024-01-15T12:30:28;11.70;;;6.90;;
14092;SDS011;7123;49.468;10.992;2024-01-15T12:32:58;18.73;;;9.20;;
14092;SDS011;7123;49.468;10.992;2024-01-15T12:35:27;14.63;;;8.50;;
14092;SDS011;7123;49.468;10.992;2024-01-15T12:37:54;14.77;;;8.37;;
14092;SDS011;7123;49.468;10.992;2024-01-15T12:40:22;12.80;;;8.33;;
14092;SDS011;7123;49.468;10.992;2024-01-15T12:42:49;13.87;;;7.87;;
14092;SDS011;7123;49.468;10.992;2024-01-15T12:45:17;13.33;;;7.53;;
14092;SDS011;7123;49.468;10.992;2024-01-15T12:47:44;13.77;;;8.13;;
14092;SDS011;7123;49.468;10.992;2024-01-15T12:50:12;14.77;;;8.00;;
14092;SDS011;7123;49.468;10.992;2024-01-15T12:52:46;11.13;;;6.93;;
14092;SDS011;7123;49.468;10.992;2024-01-15T12:55:13;12.97;;;7.37;;
14092;SDS011;7123;49.468;10.992;2024-01-15T12:57:42;11.23;;;7.30;;
14092;SDS011;7123;49.468;10.992;2024-01-15T13:00:09;9.23;;;6.37;;
14092;SDS011;7123;49.468;10.992;2024-01-15T13:02:41;10.77;;;6.40;;
14092;SDS011;7123;49.468;10.992;2024-01-15T13:05:10;12.07;;;6.90;;
14092;SDS011;7123;49.468;10.992;2024-01-15T13:07:39;10.60;;;6.00;;
14092;SDS011;7123;49.468;10.992;2024-01-15T13:10:06;11.00;;;6.43;;
14092;SDS011;7123;49.468;10.992;2024-01-15T13:12:36;9.60;;;6.50;;
14092;SDS011;7123;49.468;10.992;2024-01-15T13:15:05;14.33;;;6.60;;
14092;SDS011;7123;49.468;10.992;2024-01-15T13:17:40;14.30;;;6.60;;
14092;SDS011;7123;49.468;10.992;2024-01-15T13:20:07;10.43;;;6.10;;
14092;SDS011;7123;49.468;10.992;2024-01-15T13:22:36;10.07;;;6.50;;
14092;SDS011;7123;49.468;10.992;2024-01-15T13:25:07;10.40;;;6.83;;
14092;SDS011;7123;49.468;10.992;2024-01-15T13:27:35;9.17;;;5.47;;
14092;SDS011;7123;49.468;10.992;2024-01-15T13:30:05;10.90;;;6.63;;
14092;SDS011;7123;49.468;10.992;2024-01-15T13:32:34;10.33;;;6.30;;
14092;SDS011;7123;49.468;10.992;2024-01-15T13:35:02;11.40;;;6.70;;
14092;SDS011;7123;49.468;10.992;2024-01-15T13:37:32;9.97;;;6.07;;
14092;SDS011;7123;49.468;10.992;2024-01-15T13:39:59;10.10;;;6.50;;
14092;SDS011;7123;49.468;10.992;2024-01-15T13:42:25;9.17;;;5.93;;
14092;SDS011;7123;49.468;10.992;2024-01-15T13:44:53;8.00;;;5.40;;
14092;SDS011;7123;49.468;10.992;2024-01-15T13:47:21;9.93;;;6.23;;
14092;SDS011;7123;49.468;10.992;2024-01-15T13:49:48;10.27;;;6.33;;
14092;SDS011;7123;49.468;10.992;2024-01-15T13:52:15;11.47;;;6.20;;
14092;SDS011;7123;49.468;10.992;2024-01-15T13:54:42;11.10;;;6.57;;
14092;SDS011;7123;49.468;10.992;2024-01-15T13:57:16;8.93;;;6.50;;
14092;SDS011;7123;49.468;10.992;2024-01-15T13:59:45;9.97;;;6.20;;
14092;SDS011;7123;49.468;10.992;2024-01-15T14:02:11;9.97;;;6.20;;
14092;SDS011;7123;49.468;10.992;2024-01-15T14:04:42;8.37;;;5.27;;
14092;SDS011;7123;49.468;10.992;2024-01-15T14:07:09;10.40;;;6.23;;
14092;SDS011;7123;49.468;10.992;2024-01-15T14:09:35;9.17;;;6.13;;
14092;SDS011;7123;49.468;10.992;2024-01-15T14:12:03;8.70;;;6.03;;
14092;SDS011;7123;49.468;10.992;2024-01-15T14:14:31;11.97;;;6.53;;
14092;SDS011;7123;49.468;10.992;2024-01-15T14:16:57;9.10;;;6.30;;
14092;SDS011;7123;49.468;10.992;2024-01-15T14:19:24;9.47;;;5.97;;
14092;SDS011;7123;49.468;10.992;2024-01-15T14:21:51;11.73;;;6.60;;
14092;SDS011;7123;49.468;10.992;2024-01-15T14:24:18;10.70;;;5.63;;
14092;SDS011;7123;49.468;10.992;2024-01-15T14:26:45;11.00;;;6.60;;
14092;SDS011;7123;49.468;10.992;2024-01-15T14:29:12;7.17;;;4.73;;
14092;SDS011;7123;49.468;10.992;2024-01-15T14:31:39;10.90;;;6.30;;
14092;SDS011;7123;49.468;10.992;2024-01-15T14:34:06;9.63;;;5.30;;
14092;SDS011;7123;49.468;10.992;2024-01-15T14:36:34;9.53;;;5.67;;
14092;SDS011;7123;49.468;10.992;2024-01-15T14:39:01;8.07;;;5.10;;
14092;SDS011;7123;49.468;10.992;2024-01-15T14:41:28;8.60;;;5.70;;
14092;SDS011;7123;49.468;10.992;2024-01-15T14:43:55;8.60;;;5.60;;